Time;durP1;ratioP1;P1;durP2;ratioP2;P2;SDS_P1;SDS_P2;PMS_P1;PMS_P2;Temp;Humidity;BMP_temperature;BMP_pressure;BME280_temperature;BME280_humidity;BME280_pressure;Samples;Min_cycle;Max_cycle;Signal;HPM_P1;HPM_P2
2022/10/31 00:01:27;;;;;;;25.03;16.67;;;;;;;14.55;89.50;100754.34;5082316;28;20512;-67
2022/10/31 00:03:54;;;;;;;37.00;19.40;;;;;;;14.56;89.46;100753.31;5083063;28;20444;-67
2022/10/31 00:06:21;;;;;;;34.07;18.50;;;;;;;14.57;89.28;100757.72;5081359;28;20492;-67
2022/10/31 00:08:48;;;;;;;25.60;17.00;;;;;;;14.50;89.31;100753.94;5081907;28;20452;-67
2022/10/31 00:11:16;;;;;;;29.80;17.57;;;;;;;14.52;89.16;100756.50;5081714;28;20491;-68
2022/10/31 00:13:43;;;;;;;29.97;18.67;;;;;;;14.41;89.66;100762.91;5081791;28;20507;-67
2022/10/31 00:16:15;;;;;;;26.50;17.77;;;;;;;14.42;90.26;100765.47;5081201;28;20500;-67
2022/10/31 00:18:41;;;;;;;24.43;17.87;;;;;;;14.44;90.20;100757.22;5082311;28;21007;-68
2022/10/31 00:21:08;;;;;;;30.77;17.50;;;;;;;14.42;90.03;100767.31;5082164;28;20507;-67
2022/10/31 00:23:34;;;;;;;26.67;16.37;;;;;;;14.41;90.74;100771.84;5083138;28;20528;-68
2022/10/31 00:26:02;;;;;;;29.87;19.23;;;;;;;14.35;90.79;100767.06;5082670;28;20492;-67
2022/10/31 00:28:31;;;;;;;36.43;19.83;;;;;;;14.32;91.13;100768.25;5082895;28;20524;-67
2022/10/31 00:30:59;;;;;;;34.50;18.17;;;;;;;14.31;91.18;100771.06;5082361;28;20487;-67
2022/10/31 00:33:26;;;;;;;30.67;20.60;;;;;;;14.22;91.43;100775.53;5083663;28;20991;-67
2022/10/31 00:35:53;;;;;;;31.27;21.17;;;;;;;14.19;91.83;100775.81;5081996;28;21110;-67
2022/10/31 00:38:19;;;;;;;35.10;21.90;;;;;;;14.16;92.32;100768.03;5082825;28;20535;-68
2022/10/31 00:40:46;;;;;;;34.23;22.77;;;;;;;14.26;92.35;100776.06;5082499;28;20551;-68
2022/10/31 00:43:13;;;;;;;32.90;21.40;;;;;;;14.24;93.18;100770.00;5081896;28;20558;-67
2022/10/31 00:45:42;;;;;;;35.93;22.80;;;;;;;14.32;92.96;100768.25;5082937;28;20499;-67
2022/10/31 00:48:08;;;;;;;33.37;22.37;;;;;;;14.35;92.50;100779.69;5082614;28;20452;-66
2022/10/31 00:50:35;;;;;;;36.50;23.43;;;;;;;14.25;92.37;100777.91;5082441;28;20488;-67
2022/10/31 00:53:01;;;;;;;34.20;20.60;;;;;;;14.25;93.09;100774.34;5082513;28;20467;-67
2022/10/31 00:55:28;;;;;;;42.33;23.10;;;;;;;14.42;92.48;100772.69;5082564;28;20492;-66
2022/10/31 00:57:55;;;;;;;38.23;22.07;;;;;;;14.31;92.63;100773.75;5082621;28;20504;-66
2022/10/31 01:00:21;;;;;;;34.83;23.40;;;;;;;14.42;93.09;100775.38;5082113;28;20568;-66
2022/10/31 01:02:49;;;;;;;38.37;22.20;;;;;;;14.28;92.39;100779.44;5082693;28;20475;-65
2022/10/31 01:05:16;;;;;;;36.40;23.00;;;;;;;14.20;92.55;100777.53;5082045;28;20527;-65
2022/10/31 01:07:43;;;;;;;34.03;22.17;;;;;;;14.28;93.38;100782.13;5082096;28;20499;-66
2022/10/31 01:10:10;;;;;;;47.03;26.03;;;;;;;14.24;93.17;100786.13;5082250;28;20468;-65
2022/10/31 01:12:37;;;;;;;34.73;23.80;;;;;;;14.13;93.19;100784.50;5081642;28;20444;-65
2022/10/31 01:15:15;;;;;;;30.40;19.90;;;;;;;14.00;93.26;100792.06;5082319;28;20489;-65
2022/10/31 01:17:42;;;;;;;34.50;20.70;;;;;;;13.73;92.94;100796.41;5081973;28;20510;-65
2022/10/31 01:20:12;;;;;;;27.33;17.30;;;;;;;13.69;92.91;100797.72;5081828;28;20476;-66
2022/10/31 01:22:38;;;;;;;30.07;17.07;;;;;;;13.49;92.83;100800.47;5081314;28;20457;-66
2022/10/31 01:25:07;;;;;;;27.90;19.00;;;;;;;13.42;93.18;100806.56;5082031;28;20543;-66
2022/10/31 01:27:34;;;;;;;26.40;18.40;;;;;;;13.32;93.35;100809.28;5080836;28;20473;-66
2022/10/31 01:30:00;;;;;;;35.07;21.30;;;;;;;13.22;93.56;100800.38;5082339;28;20985;-66
2022/10/31 01:32:28;;;;;;;33.80;20.57;;;;;;;13.26;93.80;100808.00;5081017;28;20515;-67
2022/10/31 01:34:55;;;;;;;30.30;20.40;;;;;;;13.22;93.98;100801.22;5082309;28;20511;-66
2022/10/31 01:37:23;;;;;;;26.80;18.30;;;;;;;13.35;93.94;100803.63;5081066;28;20512;-67
2022/10/31 01:39:49;;;;;;;30.87;20.23;;;;;;;13.21;94.07;100798.66;5081448;28;20500;-67
2022/10/31 01:42:20;;;;;;;33.30;23.30;;;;;;;13.29;94.70;100801.47;5080294;28;20528;-69
2022/10/31 01:44:56;;;;;;;32.33;20.63;;;;;;;13.11;94.86;100799.53;5081788;28;20451;-67
2022/10/31 01:47:40;;;;;;;33.63;23.17;;;;;;;13.02;95.72;100795.03;5079997;28;20496;-67
2022/10/31 01:50:12;;;;;;;36.20;24.63;;;;;;;13.02;96.41;100789.69;5081340;28;20499;-67
2022/10/31 01:52:42;;;;;;;42.97;24.47;;;;;;;13.24;96.84;100791.16;5080984;28;20476;-67
2022/10/31 01:55:12;;;;;;;39.77;24.90;;;;;;;13.32;96.74;100793.19;5080609;28;20468;-67
2022/10/31 01:57:41;;;;;;;44.37;25.87;;;;;;;13.27;96.56;100788.19;5081198;28;20508;-67
2022/10/31 02:00:20;;;;;;;37.67;25.47;;;;;;;13.18;96.70;100779.19;5080576;28;20477;-67
2022/10/31 02:02:47;;;;;;;39.27;24.00;;;;;;;13.08;96.83;100774.81;5051184;28;20629;-67
2022/10/31 02:05:17;;;;;;;33.40;22.73;;;;;;;12.96;96.68;100783.03;5080797;28;20440;-67
2022/10/31 02:07:50;;;;;;;31.33;22.27;;;;;;;12.90;96.54;100780.09;5080632;28;20460;-67
2022/10/31 02:10:17;;;;;;;34.00;24.60;;;;;;;12.87;96.29;100785.72;5080968;28;20468;-67
2022/10/31 02:12:45;;;;;;;35.07;21.70;;;;;;;12.74;96.39;100789.56;5080528;28;20475;-67
2022/10/31 02:15:12;;;;;;;36.33;22.60;;;;;;;12.66;96.63;100783.19;5080582;28;20991;-67
2022/10/31 02:17:39;;;;;;;35.90;24.00;;;;;;;12.61;96.50;100787.13;5080918;28;21063;-67
2022/10/31 02:20:22;;;;;;;35.10;22.90;;;;;;;12.58;96.65;100791.94;5081526;28;20445;-67
2022/10/31 02:23:11;;;;;;;36.70;23.80;;;;;;;12.52;96.56;100787.16;5079603;28;20475;-67
2022/10/31 02:25:52;;;;;;;40.10;22.43;;;;;;;12.50;96.68;100789.09;5080255;28;20496;-67
2022/10/31 02:28:41;;;;;;;39.03;22.77;;;;;;;12.84;98.22;100788.69;5080601;28;20464;-67
2022/10/31 02:31:19;;;;;;;39.10;23.73;;;;;;;12.87;97.49;100794.63;5080850;28;20507;-67
2022/10/31 02:33:50;;;;;;;35.27;23.20;;;;;;;12.79;97.15;100799.84;5081159;28;20484;-68
2022/10/31 02:36:22;;;;;;;31.90;21.73;;;;;;;12.65;96.61;100800.28;5079729;28;20472;-67
2022/10/31 02:38:54;;;;;;;27.80;19.67;;;;;;;12.55;96.17;100798.44;5079482;28;21000;-66
2022/10/31 02:41:29;;;;;;;32.20;20.50;;;;;;;12.57;96.26;100787.56;5077504;28;20995;-67
2022/10/31 02:44:01;;;;;;;31.33;19.93;;;;;;;12.18;96.27;100782.16;5078119;28;20480;-67
2022/10/31 02:46:34;;;;;;;30.10;16.60;;;;;;;12.28;95.89;100790.22;5080720;28;20500;-67
2022/10/31 02:49:06;;;;;;;29.10;19.10;;;;;;;12.25;95.51;100783.28;5080251;28;20509;-66
2022/10/31 02:51:32;;;;;;;30.90;19.27;;;;;;;12.23;95.46;100783.41;5080656;28;20491;-66
2022/10/31 02:53:59;;;;;;;31.23;19.40;;;;;;;12.22;95.13;100797.81;5078898;28;20495;-66
2022/10/31 02:56:25;;;;;;;18.67;16.10;;;;;;;12.29;95.12;100813.34;5079988;28;20544;-67
2022/10/31 02:58:55;;;;;;;21.87;15.40;;;;;;;12.35;95.34;100821.69;5082625;28;20487;-67
2022/10/31 03:01:32;;;;;;;23.70;14.40;;;;;;;12.39;94.95;100817.75;5084271;28;20504;-67
2022/10/31 03:04:07;;;;;;;28.57;16.07;;;;;;;12.53;94.92;100823.69;5083861;28;20480;-68
2022/10/31 03:06:36;;;;;;;27.43;16.13;;;;;;;12.50;94.57;100823.97;5044829;28;20501;-68
2022/10/31 03:09:11;;;;;;;21.93;15.23;;;;;;;12.41;94.48;100825.66;5052237;28;20479;-67
2022/10/31 03:11:44;;;;;;;24.30;14.23;;;;;;;12.34;94.01;100811.97;5083928;28;20547;-66
2022/10/31 03:14:13;;;;;;;19.73;14.40;;;;;;;12.47;93.50;100816.22;5084157;28;20536;-66
2022/10/31 03:16:47;;;;;;;25.77;14.67;;;;;;;12.55;93.22;100827.06;5084168;28;21020;-66
2022/10/31 03:19:16;;;;;;;22.53;14.03;;;;;;;12.59;93.11;100825.81;5084497;28;20469;-66
2022/10/31 03:21:46;;;;;;;24.43;15.47;;;;;;;12.62;93.28;100826.41;5083837;28;20484;-66
2022/10/31 03:24:13;;;;;;;24.17;17.60;;;;;;;12.58;93.16;100824.97;5083194;28;20483;-66
2022/10/31 03:26:44;;;;;;;27.40;17.10;;;;;;;12.65;93.09;100819.88;5084527;28;20491;-67
2022/10/31 03:29:13;;;;;;;21.83;15.77;;;;;;;12.70;92.99;100819.47;5081932;28;20476;-67
2022/10/31 03:31:43;;;;;;;28.47;15.00;;;;;;;12.71;92.88;100813.97;5083544;28;20506;-66
2022/10/31 03:34:10;;;;;;;26.83;16.03;;;;;;;12.65;92.92;100814.53;5084507;28;20451;-67
2022/10/31 03:36:39;;;;;;;27.53;16.00;;;;;;;12.59;93.20;100809.72;5083724;28;20482;-67
2022/10/31 03:39:07;;;;;;;24.53;17.30;;;;;;;12.56;93.09;100805.47;5083051;28;20515;-67
2022/10/31 03:41:36;;;;;;;22.70;16.87;;;;;;;12.53;93.22;100811.13;5043635;28;20557;-67
2022/10/31 03:44:11;;;;;;;22.43;16.43;;;;;;;12.48;93.86;100800.00;5067768;28;20523;-67
2022/10/31 03:46:38;;;;;;;25.90;18.87;;;;;;;12.55;92.79;100808.31;5083264;28;20511;-67
2022/10/31 03:49:06;;;;;;;24.43;15.53;;;;;;;12.41;93.14;100809.56;5083102;28;20471;-67
2022/10/31 03:51:37;;;;;;;29.80;17.20;;;;;;;12.31;93.73;100800.63;5076832;28;20499;-67
2022/10/31 03:54:09;;;;;;;34.70;21.50;;;;;;;12.29;94.68;100803.50;5082709;28;20460;-67
2022/10/31 03:56:37;;;;;;;29.27;18.00;;;;;;;12.28;94.08;100801.78;5083411;28;20511;-67
2022/10/31 03:59:06;;;;;;;29.07;18.10;;;;;;;12.09;94.15;100818.66;5083889;28;20536;-68
2022/10/31 04:01:36;;;;;;;28.87;17.43;;;;;;;12.02;94.58;100810.31;5081729;28;20484;-66
2022/10/31 04:04:03;;;;;;;29.60;19.93;;;;;;;11.97;94.89;100815.22;5083234;28;20451;-66
2022/10/31 04:06:32;;;;;;;30.10;18.80;;;;;;;12.00;95.08;100817.66;5082977;28;20532;-66
2022/10/31 04:09:03;;;;;;;27.57;19.07;;;;;;;11.96;95.25;100821.59;5083241;28;20448;-66
2022/10/31 04:11:32;;;;;;;29.73;19.40;;;;;;;11.97;95.26;100817.91;5081992;28;20507;-65
2022/10/31 04:13:59;;;;;;;32.40;20.27;;;;;;;12.03;95.38;100813.84;5083278;28;20843;-65
2022/10/31 04:16:27;;;;;;;37.53;24.53;;;;;;;12.08;96.03;100816.13;5082836;28;20488;-65
2022/10/31 04:18:53;;;;;;;38.57;24.50;;;;;;;12.17;97.19;100815.28;5082623;28;20517;-65
2022/10/31 04:21:20;;;;;;;34.30;23.33;;;;;;;12.22;97.10;100823.75;5083137;28;20520;-65
2022/10/31 04:23:48;;;;;;;30.20;21.23;;;;;;;12.05;96.93;100812.72;5082730;28;20484;-66
2022/10/31 04:26:15;;;;;;;34.33;22.17;;;;;;;12.01;96.58;100819.34;5069113;28;20515;-66
2022/10/31 04:28:41;;;;;;;29.90;21.80;;;;;;;11.94;96.24;100815.50;5083294;28;20527;-66
2022/10/31 04:31:09;;;;;;;32.00;21.47;;;;;;;11.87;96.43;100825.91;5082682;28;20867;-66
2022/10/31 04:33:36;;;;;;;30.63;21.60;;;;;;;11.82;96.12;100828.13;5082802;28;20472;-66
2022/10/31 04:36:03;;;;;;;37.83;22.37;;;;;;;11.80;95.99;100826.56;5082920;28;20507;-66
2022/10/31 04:38:30;;;;;;;32.73;20.47;;;;;;;11.83;95.96;100824.44;5082720;28;20559;-68
2022/10/31 04:40:58;;;;;;;32.13;22.33;;;;;;;11.91;95.84;100823.84;5043061;28;20477;-66
2022/10/31 04:43:24;;;;;;;32.73;21.60;;;;;;;11.86;95.51;100826.03;5081945;28;20500;-66
2022/10/31 04:45:51;;;;;;;33.20;24.30;;;;;;;11.80;95.81;100808.63;5082361;28;20542;-66
2022/10/31 04:48:18;;;;;;;36.17;22.23;;;;;;;11.83;96.10;100813.75;5081871;28;20452;-66
2022/10/31 04:50:44;;;;;;;34.10;22.63;;;;;;;11.72;96.04;100808.50;5082016;28;20496;-66
2022/10/31 04:53:11;;;;;;;29.30;21.13;;;;;;;11.63;96.44;100818.19;5082316;28;20491;-66
2022/10/31 04:55:38;;;;;;;29.30;19.90;;;;;;;11.56;96.29;100816.16;5081706;28;20507;-67
2022/10/31 04:58:05;;;;;;;30.70;20.63;;;;;;;11.44;96.55;100815.38;5082036;28;20499;-66
2022/10/31 05:00:32;;;;;;;30.33;21.50;;;;;;;11.45;96.60;100809.06;5081929;28;20579;-66
2022/10/31 05:02:59;;;;;;;27.00;19.47;;;;;;;11.49;96.70;100807.78;5081870;28;20979;-65
2022/10/31 05:05:29;;;;;;;32.50;21.40;;;;;;;11.45;97.39;100804.53;5081860;28;20523;-65
2022/10/31 05:07:56;;;;;;;34.20;20.10;;;;;;;11.47;97.88;100801.72;5082472;28;20480;-66
2022/10/31 05:10:24;;;;;;;25.80;19.40;;;;;;;11.42;98.15;100803.94;5082194;28;20476;-65
2022/10/31 05:12:52;;;;;;;30.70;20.53;;;;;;;11.41;98.53;100797.75;5082165;28;20437;-67
2022/10/31 05:15:22;;;;;;;30.93;20.23;;;;;;;11.41;98.36;100803.13;5081897;28;21032;-67
2022/10/31 05:17:49;;;;;;;32.70;20.97;;;;;;;11.31;97.76;100802.22;5081473;28;20500;-67
2022/10/31 05:20:17;;;;;;;31.00;20.90;;;;;;;11.29;97.94;100799.66;5082399;28;20448;-66
2022/10/31 05:22:44;;;;;;;28.77;20.43;;;;;;;11.28;97.61;100802.47;5080339;28;20468;-66
2022/10/31 05:25:11;;;;;;;29.17;21.67;;;;;;;11.13;98.27;100801.97;5079758;28;20798;-66
2022/10/31 05:27:40;;;;;;;36.90;25.67;;;;;;;11.15;98.69;100794.66;5065079;28;20487;-65
2022/10/31 05:30:07;;;;;;;29.77;20.20;;;;;;;11.31;98.48;100794.19;5064074;28;20488;-66
2022/10/31 05:32:39;;;;;;;38.63;20.90;;;;;;;11.10;98.63;100778.97;5067800;28;20469;-66
2022/10/31 05:35:08;;;;;;;32.27;20.17;;;;;;;11.12;99.13;100784.19;5081756;28;20968;-66
2022/10/31 05:37:34;;;;;;;28.27;18.47;;;;;;;11.14;99.65;100786.75;5081236;28;20460;-66
2022/10/31 05:40:01;;;;;;;28.30;18.47;;;;;;;11.12;99.28;100797.56;5081751;28;20470;-66
2022/10/31 05:42:28;;;;;;;28.87;20.57;;;;;;;11.14;99.61;100795.63;5069062;28;20520;-66
2022/10/31 05:44:54;;;;;;;31.47;19.53;;;;;;;11.17;99.43;100798.03;5071301;28;20495;-66
2022/10/31 05:47:21;;;;;;;28.97;20.37;;;;;;;11.13;99.78;100796.63;5079984;28;20508;-66
2022/10/31 05:49:49;;;;;;;36.23;22.37;;;;;;;11.14;100.00;100792.94;5081284;28;20460;-66
2022/10/31 05:52:16;;;;;;;32.27;20.53;;;;;;;11.13;99.80;100799.28;5078135;28;20504;-67
2022/10/31 05:54:42;;;;;;;30.20;20.57;;;;;;;11.02;99.40;100792.16;5079333;28;21122;-67
2022/10/31 05:57:09;;;;;;;26.57;19.53;;;;;;;10.97;99.36;100794.41;5078431;28;20473;-66
2022/10/31 05:59:35;;;;;;;26.77;20.07;;;;;;;10.94;99.10;100800.00;5060898;28;21006;-66
2022/10/31 06:02:02;;;;;;;30.10;20.00;;;;;;;10.87;99.14;100799.66;5068806;28;20465;-66
2022/10/31 06:04:29;;;;;;;27.50;19.87;;;;;;;10.74;98.81;100793.63;5078736;28;20479;-66
2022/10/31 06:06:57;;;;;;;31.00;20.50;;;;;;;10.73;98.68;100794.63;5077586;28;20548;-67
2022/10/31 06:09:24;;;;;;;28.53;19.10;;;;;;;10.73;98.34;100808.00;5078600;28;20448;-67
2022/10/31 06:11:50;;;;;;;29.53;19.30;;;;;;;10.71;98.27;100805.44;5066765;28;20505;-67
2022/10/31 06:14:17;;;;;;;28.60;19.97;;;;;;;10.72;98.01;100799.09;5057714;28;20460;-67
2022/10/31 06:16:44;;;;;;;33.83;21.20;;;;;;;10.71;97.87;100805.44;5058437;28;20503;-67
2022/10/31 06:19:10;;;;;;;30.30;21.70;;;;;;;10.77;98.09;100811.28;5057285;28;20792;-68
2022/10/31 06:21:37;;;;;;;31.93;22.17;;;;;;;10.82;97.80;100814.41;5051972;28;20504;-67
2022/10/31 06:24:05;;;;;;;40.00;26.60;;;;;;;10.98;97.66;100813.97;5056065;28;20477;-66
2022/10/31 06:26:32;;;;;;;34.53;23.23;;;;;;;11.04;97.93;100816.97;5055179;28;20532;-66
2022/10/31 06:28:59;;;;;;;32.00;21.73;;;;;;;11.00;97.50;100814.69;5057327;28;20442;-66
2022/10/31 06:31:25;;;;;;;32.70;22.37;;;;;;;10.88;97.81;100814.75;5057582;28;21119;-65
2022/10/31 06:34:02;;;;;;;31.70;22.33;;;;;;;10.85;97.72;100814.13;5056530;28;20465;-66
2022/10/31 06:36:29;;;;;;;31.83;21.90;;;;;;;10.98;98.67;100808.63;5056520;28;20483;-67
2022/10/31 06:38:55;;;;;;;35.00;22.70;;;;;;;11.11;98.77;100810.13;5054275;28;20548;-67
2022/10/31 06:41:23;;;;;;;33.20;22.23;;;;;;;11.15;98.17;100818.75;5056494;28;20544;-66
2022/10/31 06:43:52;;;;;;;30.03;20.60;;;;;;;11.17;97.64;100822.13;5056125;28;21699;-66
2022/10/31 06:46:18;;;;;;;34.30;20.00;;;;;;;11.15;96.78;100824.09;5055747;28;20499;-66
2022/10/31 06:48:45;;;;;;;33.53;21.40;;;;;;;11.33;97.14;100820.81;5054646;28;20508;-66
2022/10/31 06:51:12;;;;;;;31.73;19.73;;;;;;;11.97;100.00;100834.00;5054102;28;20513;-65
2022/10/31 06:53:38;;;;;;;31.80;22.33;;;;;;;12.34;100.00;100832.53;5060436;28;20458;-66
2022/10/31 06:56:05;;;;;;;31.60;21.60;;;;;;;12.05;98.40;100834.16;5059577;28;20496;-66
2022/10/31 06:58:33;;;;;;;36.50;21.03;;;;;;;11.96;96.23;100840.34;5061759;28;20508;-66
2022/10/31 07:01:01;;;;;;;28.53;21.77;;;;;;;12.03;94.39;100840.63;5061660;28;20480;-65
2022/10/31 07:03:27;;;;;;;30.93;20.10;;;;;;;12.06;94.21;100835.00;5071365;28;20440;-65
2022/10/31 07:05:56;;;;;;;32.80;20.80;;;;;;;12.28;93.35;100843.84;5076198;28;20496;-66
2022/10/31 07:08:22;;;;;;;41.57;22.90;;;;;;;12.40;93.22;100850.78;5077606;28;20468;-66
2022/10/31 07:10:52;;;;;;;33.17;21.80;;;;;;;12.37;93.49;100851.06;5059175;28;20500;-65
2022/10/31 07:13:21;;;;;;;29.43;20.30;;;;;;;12.51;93.11;100842.59;5059691;28;21064;-65
2022/10/31 07:15:49;;;;;;;28.60;21.20;;;;;;;12.66;91.93;100842.22;5057861;28;20496;-65
2022/10/31 07:18:16;;;;;;;28.57;21.90;;;;;;;12.76;91.81;100851.13;5069982;28;20456;-65
2022/10/31 07:20:42;;;;;;;32.23;21.27;;;;;;;12.80;91.39;100839.94;5064522;28;20937;-66
2022/10/31 07:23:10;;;;;;;34.40;20.60;;;;;;;12.93;90.42;100834.31;5074490;28;20475;-65
2022/10/31 07:25:37;;;;;;;30.67;21.00;;;;;;;13.04;89.91;100835.13;5072366;28;20472;-66
2022/10/31 07:28:03;;;;;;;27.73;17.87;;;;;;;13.41;88.49;100834.44;5065248;28;20467;-66
2022/10/31 07:30:30;;;;;;;32.60;18.40;;;;;;;13.62;86.10;100832.38;5069259;28;20487;-67
2022/10/31 07:32:58;;;;;;;25.80;17.67;;;;;;;13.54;85.61;100835.81;5063089;28;20479;-65
2022/10/31 07:35:26;;;;;;;20.67;15.57;;;;;;;13.75;84.61;100832.09;5058311;28;20480;-65
2022/10/31 07:37:53;;;;;;;25.00;16.90;;;;;;;13.71;84.27;100828.84;5062328;28;20437;-65
2022/10/31 07:40:20;;;;;;;26.50;15.80;;;;;;;14.23;82.69;100822.06;5062832;28;20572;-65
2022/10/31 07:42:48;;;;;;;26.60;16.87;;;;;;;14.72;80.30;100832.53;5058534;28;20521;-65
2022/10/31 07:45:17;;;;;;;18.27;14.73;;;;;;;15.22;77.54;100832.84;5058657;28;20483;-66
2022/10/31 07:47:45;;;;;;;18.20;14.10;;;;;;;15.43;76.02;100829.78;5072434;28;20453;-65
2022/10/31 07:50:15;;;;;;;22.77;14.67;;;;;;;16.27;72.79;100834.63;5061694;28;20485;-65
2022/10/31 07:52:42;;;;;;;22.00;14.73;;;;;;;16.71;69.99;100837.91;5063466;28;20449;-65
2022/10/31 07:55:09;;;;;;;21.13;13.80;;;;;;;16.65;69.64;100837.75;5068369;28;20451;-65
2022/10/31 07:57:36;;;;;;;20.63;14.87;;;;;;;16.09;71.82;100845.50;5064960;28;20494;-72
2022/10/31 08:00:04;;;;;;;17.30;13.70;;;;;;;15.94;72.58;100842.56;5071035;28;20511;-71
2022/10/31 08:02:30;;;;;;;21.30;14.40;;;;;;;16.07;71.33;100844.81;5076048;28;20510;-69
2022/10/31 08:04:57;;;;;;;23.37;15.47;;;;;;;16.57;71.11;100835.88;5063151;28;20460;-71
2022/10/31 08:07:25;;;;;;;21.93;14.27;;;;;;;16.22;72.05;100842.34;5062791;28;21043;-72
2022/10/31 08:09:51;;;;;;;24.37;14.37;;;;;;;15.57;74.08;100833.75;5061602;28;20483;-71
2022/10/31 08:12:18;;;;;;;18.53;13.90;;;;;;;15.68;74.53;100838.03;5061232;28;20510;-72
2022/10/31 08:14:45;;;;;;;21.73;16.20;;;;;;;16.27;73.25;100837.31;5063159;28;20454;-73
2022/10/31 08:17:12;;;;;;;17.87;14.50;;;;;;;17.12;68.75;100834.44;5079005;28;20482;-71
2022/10/31 08:19:38;;;;;;;20.43;14.73;;;;;;;16.82;70.32;100835.91;5081671;28;20565;-72
2022/10/31 08:22:05;;;;;;;23.00;14.67;;;;;;;16.98;69.67;100844.06;5060609;28;20557;-72
2022/10/31 08:24:33;;;;;;;22.37;15.33;;;;;;;16.76;71.37;100842.81;5068172;28;20556;-72
2022/10/31 08:26:59;;;;;;;20.07;16.13;;;;;;;17.02;70.06;100845.41;5081860;28;20492;-72
2022/10/31 08:29:26;;;;;;;20.30;15.27;;;;;;;17.42;69.46;100837.47;5067154;28;20462;-67
2022/10/31 08:31:53;;;;;;;20.13;15.47;;;;;;;17.75;67.95;100849.06;5061452;28;21075;-67
2022/10/31 08:34:19;;;;;;;19.43;15.97;;;;;;;17.36;68.72;100836.28;5073858;28;20475;-67
2022/10/31 08:36:46;;;;;;;20.80;14.80;;;;;;;17.87;66.57;100836.88;5074571;28;20555;-67
2022/10/31 08:39:12;;;;;;;17.30;15.50;;;;;;;17.37;68.36;100829.84;5065156;28;20565;-67
2022/10/31 08:41:40;;;;;;;21.23;15.40;;;;;;;16.47;72.64;100825.22;5080143;28;20505;-68
2022/10/31 08:44:07;;;;;;;18.37;14.57;;;;;;;16.93;70.65;100827.53;5081390;28;20454;-67
2022/10/31 08:46:34;;;;;;;21.27;15.13;;;;;;;16.62;71.94;100822.72;5069301;28;20499;-68
2022/10/31 08:49:01;;;;;;;19.80;15.47;;;;;;;16.52;72.48;100816.63;5060830;28;20456;-68
2022/10/31 08:51:27;;;;;;;22.47;16.60;;;;;;;16.49;73.63;100820.53;5064395;28;20573;-68
2022/10/31 08:53:54;;;;;;;25.87;17.50;;;;;;;16.10;75.09;100826.44;5067482;28;20497;-69
2022/10/31 08:56:22;;;;;;;21.87;16.30;;;;;;;16.46;74.06;100815.44;5061502;28;20496;-69
2022/10/31 08:58:50;;;;;;;26.67;18.27;;;;;;;16.48;74.02;100816.13;5062255;28;20492;-69
2022/10/31 09:01:17;;;;;;;23.23;16.83;;;;;;;17.50;71.13;100813.13;5059452;28;20685;-69
2022/10/31 09:03:44;;;;;;;25.73;17.40;;;;;;;17.81;69.84;100799.69;5062740;28;20429;-69
2022/10/31 09:06:13;;;;;;;23.10;17.40;;;;;;;18.40;67.86;100798.41;5059053;28;20574;-66
2022/10/31 09:08:39;;;;;;;23.50;18.47;;;;;;;17.81;68.89;100801.53;5061252;28;20486;-67
2022/10/31 09:11:07;;;;;;;25.43;16.40;;;;;;;17.17;70.50;100794.25;5061162;28;20637;-68
2022/10/31 09:13:33;;;;;;;22.27;16.73;;;;;;;18.41;67.15;100800.09;5061365;28;20535;-68
2022/10/31 09:16:01;;;;;;;23.60;16.57;;;;;;;18.02;67.62;100793.72;5061255;28;20503;-69
2022/10/31 09:18:28;;;;;;;22.73;17.23;;;;;;;18.19;68.14;100797.19;5061445;28;20531;-68
2022/10/31 09:20:58;;;;;;;24.90;18.90;;;;;;;18.48;65.91;100787.53;5060106;28;20483;-74
2022/10/31 09:23:25;;;;;;;23.40;18.53;;;;;;;18.36;67.05;100791.66;5061939;28;20458;-74
2022/10/31 09:25:52;;;;;;;28.20;18.87;;;;;;;18.12;68.07;100789.94;5060466;28;20483;-74
2022/10/31 09:28:20;;;;;;;22.10;18.53;;;;;;;17.95;68.75;100784.63;5061106;28;20500;-74
2022/10/31 09:30:48;;;;;;;25.83;18.00;;;;;;;17.51;70.64;100790.47;5064826;28;20502;-74
2022/10/31 09:33:16;;;;;;;24.27;18.27;;;;;;;17.49;71.24;100787.94;5061893;28;20462;-72
2022/10/31 09:35:43;;;;;;;27.97;19.60;;;;;;;18.02;69.24;100782.88;5060099;28;20475;-73
2022/10/31 09:38:11;;;;;;;27.70;19.70;;;;;;;17.64;70.41;100779.13;5060928;28;21026;-70
2022/10/31 09:40:40;;;;;;;29.37;19.97;;;;;;;17.98;69.97;100783.41;5059833;28;20488;-73
2022/10/31 09:43:14;;;;;;;29.93;20.30;;;;;;;18.16;69.21;100784.00;5060206;28;20525;-73
2022/10/31 09:45:48;;;;;;;36.47;21.67;;;;;;;17.85;69.97;100783.94;5074390;28;20484;-72
2022/10/31 09:48:28;;;;;;;34.80;22.50;;;;;;;17.53;72.09;100782.19;5080515;28;20452;-71
2022/10/31 09:50:59;;;;;;;33.47;23.10;;;;;;;18.01;70.33;100783.06;5070059;28;20498;-73
2022/10/31 09:53:31;;;;;;;29.70;21.00;;;;;;;17.80;70.96;100780.94;5060481;28;20488;-73
2022/10/31 09:56:03;;;;;;;31.10;22.67;;;;;;;17.31;72.91;100787.31;5056474;28;20652;-73
2022/10/31 09:58:31;;;;;;;27.73;21.77;;;;;;;18.13;71.31;100786.22;5061164;28;20461;-73
2022/10/31 10:01:00;;;;;;;31.90;21.53;;;;;;;18.30;69.49;100789.66;5060365;28;20512;-73
2022/10/31 10:03:34;;;;;;;32.77;23.00;;;;;;;19.53;66.45;100794.13;5060528;28;20462;-73
2022/10/31 10:06:08;;;;;;;27.27;21.30;;;;;;;19.71;64.45;100791.88;5059951;28;20920;-73
2022/10/31 10:08:36;;;;;;;24.67;19.70;;;;;;;19.22;65.27;100796.97;5059863;28;20490;-73
2022/10/31 10:11:15;;;;;;;32.30;21.97;;;;;;;18.75;67.96;100794.28;5059341;28;20650;-73
2022/10/31 10:13:57;;;;;;;31.67;21.70;;;;;;;18.58;68.75;100790.00;5063427;28;20463;-72
2022/10/31 10:16:41;;;;;;;29.47;21.60;;;;;;;19.10;66.08;100791.16;5063312;28;20551;-72
2022/10/31 10:19:20;;;;;;;30.50;21.07;;;;;;;19.10;66.79;100783.03;5058673;28;20472;-73
2022/10/31 10:21:54;;;;;;;27.37;21.70;;;;;;;19.65;65.24;100773.66;5053639;28;20798;-72
2022/10/31 10:24:33;;;;;;;32.73;20.90;;;;;;;20.55;60.77;100778.91;5060005;28;20991;-73
2022/10/31 10:27:07;;;;;;;30.47;20.83;;;;;;;20.53;61.77;100776.38;5058559;28;20502;-72
2022/10/31 10:29:37;;;;;;;29.27;20.50;;;;;;;20.66;61.17;100782.00;5060787;28;20462;-72
2022/10/31 10:32:12;;;;;;;24.20;20.70;;;;;;;20.23;62.01;100771.06;5059394;28;20524;-73
2022/10/31 10:34:54;;;;;;;27.40;21.00;;;;;;;20.80;60.81;100773.97;5059494;28;20843;-73
2022/10/31 10:37:26;;;;;;;33.20;20.60;;;;;;;20.05;62.69;100767.91;5060082;28;20479;-73
2022/10/31 10:39:56;;;;;;;28.03;20.00;;;;;;;19.98;62.66;100766.97;5058825;28;20530;-72
2022/10/31 10:48:08;;;;;;;32.47;21.20;;;;;;;20.81;60.97;100753.91;5058638;28;21027;-73
2022/10/31 10:50:41;;;;;;;29.60;20.57;;;;;;;21.18;59.75;100750.03;5059771;28;20476;-73
2022/10/31 10:53:20;;;;;;;28.53;19.93;;;;;;;20.91;60.56;100742.72;5059356;28;20482;-73
2022/10/31 10:55:52;;;;;;;29.27;21.23;;;;;;;20.66;61.32;100746.66;5059013;28;20473;-73
2022/10/31 10:58:18;;;;;;;27.67;18.83;;;;;;;20.98;59.96;100735.44;5060253;28;20452;-73
2022/10/31 11:00:47;;;;;;;29.50;19.67;;;;;;;21.24;59.85;100734.78;5059636;28;20627;-74
2022/10/31 11:03:14;;;;;;;29.80;17.83;;;;;;;21.59;58.69;100727.47;5058464;28;20828;-73
2022/10/31 11:05:45;;;;;;;27.60;19.63;;;;;;;21.60;58.07;100728.34;5058860;28;20490;-73
2022/10/31 11:08:12;;;;;;;27.27;18.00;;;;;;;22.04;56.25;100727.03;5059152;28;20483;-73
2022/10/31 11:10:39;;;;;;;24.50;17.77;;;;;;;21.96;55.92;100713.59;5056993;28;20517;-71
2022/10/31 11:13:19;;;;;;;24.30;17.63;;;;;;;21.65;58.08;100706.81;5060491;28;20500;-73
2022/10/31 11:15:54;;;;;;;24.80;17.20;;;;;;;21.95;56.69;100695.63;5072636;28;20494;-72
2022/10/31 11:18:24;;;;;;;21.40;16.97;;;;;;;22.27;55.18;100698.63;5074322;28;20508;-72
2022/10/31 11:20:54;;;;;;;28.60;17.90;;;;;;;21.85;57.42;100703.31;5062289;28;20485;-72
2022/10/31 11:23:23;;;;;;;27.80;16.53;;;;;;;22.22;56.27;100701.13;5063927;28;20553;-73